Flight Track Log - Related Links

Times and Time Zones

All times are in EDT time to prevent confusion due to time zone crossing. See the EJA364 flight status page for this flight to view local times or setup timezone preferences in your user account.

Time Position Orientation Groundspeed Altitude Reporting Facility
EDT Latitude Longitude Course Direction KTS MPH feet Rate Location/Type
Thu 08:51:29 AM 26.4600 -80.1033 318° Northwest 187 215 8,300  Level Miami Center
Thu 08:52:29 AM 26.5008 -80.1439 318° Northwest 253 291 10,000 1,000 Climbing Miami Center
Thu 08:53:29 AM 26.5406 -80.2378 295° West 337 388 10,300 550 Climbing Miami Center
Thu 08:54:29 AM 26.6050 -80.3325 307° West 353 406 11,100 1,750 Climbing Miami Center
Thu 08:55:29 AM 26.6936 -80.3817 334° Northwest 347 399 13,800 2,750 Climbing Miami Center
Thu 08:56:29 AM 26.7803 -80.4239 336° Northwest 365 420 16,600 2,950 Climbing Miami Center
Thu 08:57:29 AM 26.8811 -80.4897 330° Northwest 373 429 19,700 3,000 Climbing Miami Center
Thu 08:58:29 AM 26.9650 -80.5622 322° Northwest 378 435 22,600 1,800 Climbing Miami Center
Thu 08:59:29 AM 27.0525 -80.6467 319° Northwest 393 452 23,300 1,950 Climbing Miami Center
Thu 09:00:29 AM 27.1419 -80.7336 319° Northwest 409 471 26,500 3,200 Climbing Miami Center
Thu 09:01:29 AM 27.2406 -80.7978 330° Northwest 414 476 29,700 2,250 Climbing Miami Center
Thu 09:02:29 AM 27.3439 -80.8386 341° North 394 453 31,000 650 Climbing Miami Center
Thu 09:03:29 AM 27.4636 -80.8872 340° North 421 484 31,000  Level Miami Center
Thu 09:04:29 AM 27.5750 -80.9333 340° North 456 525 31,000  Level Miami Center
Thu 09:05:29 AM 27.7008 -80.9847 340° North 470 541 31,000  Level Miami Center
Thu 09:06:29 AM 27.8267 -81.0336 341° North 470 541 31,000  Level Miami Center
Thu 09:07:29 AM 27.9464 -81.0853 339° North 470 541 31,000  Level Miami Center
Thu 09:08:29 AM 28.0864 -81.1469 339° North 483 556 31,000  Level Miami Center
Thu 09:09:29 AM 28.2122 -81.1989 340° North 483 556 31,000  Level Miami Center
Thu 09:10:29 AM 28.3378 -81.2508 340° North 483 556 31,000  Level Miami Center
Thu 09:11:29 AM 28.4533 -81.2978 340° North 483 556 31,000  Level Miami Center
Thu 09:12:54 AM 28.6356 -81.3669 342° North 488 562 31,000  Level Jacksonville Center
Thu 09:13:54 AM 28.7675 -81.4122 343° North 493 567 31,000  Level Jacksonville Center
Thu 09:14:54 AM 28.8972 -81.4531 345° North 488 562 31,000  Level Jacksonville Center
Thu 09:15:54 AM 29.0272 -81.4961 344° North 483 556 31,000  Level Jacksonville Center
Thu 09:16:54 AM 29.1486 -81.5372 344° North 469 540 31,000  Level Jacksonville Center
Thu 09:17:54 AM 29.2744 -81.5761 345° North 443 510 31,000  Level Jacksonville Center
Thu 09:18:54 AM 29.3853 -81.6128 344° North 422 486 31,000  Level Jacksonville Center
Thu 09:19:54 AM 29.4964 -81.6519 343° North 413 475 31,000  Level Jacksonville Center
Thu 09:20:54 AM 29.6053 -81.6864 345° North 407 468 31,000  Level Jacksonville Center
Thu 09:21:54 AM 29.7119 -81.7208 344° North 401 461 31,000  Level Jacksonville Center
Thu 09:22:54 AM 29.8189 -81.7556 344° North 401 461 31,000  Level Jacksonville Center
Thu 09:23:54 AM 29.9256 -81.7925 343° North 401 461 31,000  Level Jacksonville Center
Thu 09:24:54 AM 30.0325 -81.8297 343° North 401 461 31,000  Level Jacksonville Center
Thu 09:25:54 AM 30.1414 -81.8669 344° North 401 461 31,000  Level Jacksonville Center
Thu 09:26:54 AM 30.2481 -81.9042 343° North 401 461 31,000  Level Jacksonville Center
Thu 09:27:54 AM 30.3547 -81.9442 342° North 401 461 31,000  Level Jacksonville Center
Thu 09:28:54 AM 30.4636 -81.9864 342° North 401 461 31,000  Level Jacksonville Center
Thu 09:29:54 AM 30.5767 -82.0311 341° North 412 474 31,000  Level Jacksonville Center
Thu 09:30:54 AM 30.6919 -82.0761 341° North 424 488 31,000  Level Jacksonville Center
Thu 09:31:54 AM 30.8069 -82.1211 341° North 431 496 31,000  Level Jacksonville Center
Thu 09:32:54 AM 30.9283 -82.1683 342° North 431 496 31,000  Level Jacksonville Center
Thu 09:33:54 AM 31.0436 -82.2136 341° North 437 503 31,000  Level Jacksonville Center
Thu 09:34:54 AM 31.1481 -82.2567 341° North 442 509 31,000  Level Jacksonville Center
Thu 09:35:54 AM 31.2675 -82.3044 341° North 447 514 31,000  Level Jacksonville Center
Thu 09:36:54 AM 31.3844 -82.3522 341° North 447 514 31,000  Level Jacksonville Center
Thu 09:37:54 AM 31.5036 -82.4003 341° North 447 514 31,000  Level Jacksonville Center
Thu 09:38:54 AM 31.6208 -82.4461 342° North 447 514 31,000  Level Jacksonville Center
Thu 09:40:50 AM 31.8419 -82.5403 340° North 459 528 31,000  Level Atlanta Center
Thu 09:41:50 AM 31.9550 -82.5847 342° North 442 509 31,000  Level Atlanta Center
Thu 09:42:50 AM 32.0642 -82.6369 338° Northwest 430 495 31,000  Level Atlanta Center
Thu 09:43:50 AM 32.1631 -82.7092 328° Northwest 419 482 31,000  Level Atlanta Center
Thu 09:44:50 AM 32.2619 -82.7861 327° Northwest 419 482 31,000  Level Atlanta Center
Thu 09:45:50 AM 32.3608 -82.8611 327° Northwest 419 482 31,000  Level Atlanta Center
Thu 09:46:50 AM 32.4556 -82.9336 327° Northwest 419 482 31,000 -450 Level Atlanta Center
Thu 09:47:50 AM 32.5564 -83.0136 326° Northwest 424 488 30,100 -1,650 Descending Atlanta Center
Thu 09:48:50 AM 32.6614 -83.0939 327° Northwest 437 503 27,700 -2,450 Descending Atlanta Center
Thu 09:49:50 AM 32.7683 -83.1767 327° Northwest 453 521 25,200 -1,850 Descending Atlanta Center
Thu 09:50:50 AM 32.8711 -83.2572 327° Northwest 446 513 24,000 -2,300 Descending Atlanta Center
Thu 09:51:50 AM 32.9719 -83.3356 327° Northwest 446 513 20,600 -2,850 Descending Atlanta Center
Thu 09:52:50 AM 33.0664 -83.4142 325° Northwest 431 496 18,300 -2,200 Descending Atlanta Center
Thu 09:53:50 AM 33.1583 -83.4856 327° Northwest 406 467 16,200 -2,050 Descending Atlanta Center
Thu 09:54:50 AM 33.2486 -83.5544 327° Northwest 389 448 14,200 -2,050 Descending Atlanta Center
Thu 09:55:50 AM 33.3386 -83.6261 326° Northwest 384 442 12,100 -1,650 Descending Atlanta Center
Thu 09:56:50 AM 33.4286 -83.7003 325° Northwest 371 427 10,900 -1,850 Descending Atlanta Center
Thu 09:57:50 AM 33.4956 -83.7597 323° Northwest 327 376 8,400 -2,500 Descending Atlanta Center
Thu 09:58:50 AM 33.5581 -83.8119 325° Northwest 290 334 5,900 -2,200 Descending Atlanta Center
Thu 09:59:50 AM 33.6147 -83.8742 318° Northwest 284 327 4,000 -950 Descending Atlanta Center
Thu 10:00:50 AM 33.6564 -83.9489 304° West 271 312 4,000  Level Atlanta Center
Thu 10:01:50 AM 33.7003 -84.0214 306° West 271 312 4,000 -200 Level Atlanta Center
Thu 10:02:50 AM 33.7461 -84.0939 307° West 271 312 3,600 -462 Descending Atlanta Center
Thu 10:04:00 AM 33.8000 -84.1833 306° West 247 284 3,000 -435 Descending Atlanta TRACON
Thu 10:04:54 AM 33.8167 -84.2333 292° West 217 250 2,700 -474 Descending Atlanta TRACON
Thu 10:05:54 AM 33.8333 -84.2833 292° West 164 189 2,100 -600 Descending Atlanta TRACON
Thu 10:07:00 AM 33.8667 -84.3000 220° Southwest  Level FlightAware Approximate
Thu 10:14:00 AM 33.8756 -84.3020 220° Southwest  Level Estimated
Thu 10:15:00 AM 33.8756 -84.3020 220° Southwest  Level Estimated
Thu 10:16:00 AM 33.8756 -84.3020 220° Southwest  Level Estimated

Login

Don't have an account? Register now (free) for customized features, flight alerts, and more!